createdAt,value
2018-05-29T00:00:27.945Z,23.10
2018-05-29T00:02:54.275Z,23.10
2018-05-29T00:05:20.679Z,23.10
2018-05-29T00:07:48.649Z,23.00
2018-05-29T00:10:14.973Z,23.00
2018-05-29T00:12:42.186Z,23.00
2018-05-29T00:15:09.368Z,22.90
2018-05-29T00:17:35.844Z,22.90
2018-05-29T00:20:02.190Z,22.90
2018-05-29T00:22:28.540Z,22.90
2018-05-29T00:24:54.935Z,22.80
2018-05-29T00:27:23.043Z,22.80
2018-05-29T00:29:49.394Z,22.70
2018-05-29T00:32:15.754Z,22.70
2018-05-29T00:34:42.884Z,22.60
2018-05-29T00:37:09.282Z,22.60
2018-05-29T00:39:35.681Z,22.60
2018-05-29T00:42:02.358Z,22.60
2018-05-29T00:44:30.216Z,22.50
2018-05-29T00:46:56.634Z,22.50
2018-05-29T00:49:23.020Z,22.40
2018-05-29T00:51:49.326Z,22.40
2018-05-29T00:54:18.684Z,22.40
2018-05-29T00:56:46.679Z,22.40
2018-05-29T00:59:13.824Z,22.40
2018-05-29T01:01:40.150Z,22.40
2018-05-29T01:04:06.517Z,22.30
2018-05-29T01:06:33.572Z,22.30
2018-05-29T01:08:59.998Z,22.30
2018-05-29T01:11:28.311Z,22.30
2018-05-29T01:13:54.649Z,22.30
2018-05-29T01:16:21.104Z,22.40
2018-05-29T01:18:48.423Z,22.40
2018-05-29T01:30:59.833Z,22.40
2018-05-29T01:33:27.243Z,22.30
2018-05-29T01:35:54.447Z,22.20
2018-05-29T01:38:20.832Z,22.30
2018-05-29T01:40:47.299Z,22.30
2018-05-29T01:43:14.418Z,22.30
2018-05-29T01:45:40.734Z,22.20
2018-05-29T01:48:10.087Z,22.30
2018-05-29T01:50:37.453Z,22.30
2018-05-29T01:53:04.817Z,22.40
2018-05-29T01:55:31.191Z,22.40
2018-05-29T01:57:58.210Z,22.40
2018-05-29T02:00:25.021Z,22.40
2018-05-29T02:02:52.861Z,22.30
2018-05-29T02:05:20.029Z,22.30
2018-05-29T02:07:46.377Z,22.30
2018-05-29T02:10:13.519Z,22.40
2018-05-29T02:12:39.855Z,22.40
2018-05-29T02:15:07.223Z,22.30
2018-05-29T02:17:33.582Z,22.30
2018-05-29T02:19:59.925Z,22.20
2018-05-29T02:22:26.563Z,22.20
2018-05-29T02:34:37.933Z,22.10
2018-05-29T02:37:04.315Z,21.90
2018-05-29T02:49:17.431Z,21.70
2018-05-29T02:51:44.411Z,21.60
2018-05-29T02:54:11.731Z,21.60
2018-05-29T02:56:38.103Z,21.60
2018-05-29T03:08:45.466Z,21.50
2018-05-29T03:11:11.854Z,21.30
2018-05-29T03:13:39.944Z,21.30
2018-05-29T03:16:07.120Z,21.20
2018-05-29T03:18:33.505Z,21.10
2018-05-29T03:21:00.800Z,21.20
2018-05-29T03:23:27.154Z,21.10
2018-05-29T03:25:53.503Z,21.10
2018-05-29T03:28:19.870Z,21.00
2018-05-29T03:30:46.304Z,21.10
2018-05-29T03:33:12.653Z,21.10
2018-05-29T03:35:39.311Z,21.10
2018-05-29T03:38:05.713Z,21.10
2018-05-29T03:40:32.901Z,20.90
2018-05-29T03:42:59.975Z,21.00
2018-05-29T03:45:27.135Z,21.00
2018-05-29T03:57:38.514Z,21.00
2018-05-29T04:00:04.921Z,20.80
2018-05-29T04:02:31.971Z,20.80
2018-05-29T04:04:59.195Z,20.90
2018-05-29T04:17:11.307Z,21.10
2018-05-29T04:19:37.681Z,21.00
2018-05-29T04:22:04.831Z,21.10
2018-05-29T04:24:31.175Z,21.10
2018-05-29T04:26:58.288Z,21.00
2018-05-29T04:29:24.637Z,21.00
2018-05-29T04:31:52.381Z,21.10
2018-05-29T04:34:19.647Z,21.00
2018-05-29T04:36:46.025Z,21.10
2018-05-29T04:48:52.493Z,21.10
2018-05-29T05:00:59.803Z,21.30
2018-05-29T05:03:26.083Z,21.50
2018-05-29T05:05:53.106Z,21.60
2018-05-29T05:08:19.516Z,21.60
2018-05-29T05:10:46.515Z,21.60
2018-05-29T05:13:12.791Z,21.60
2018-05-29T05:15:39.065Z,21.70
2018-05-29T05:18:05.381Z,21.70
2018-05-29T05:20:31.678Z,21.70
2018-05-29T05:22:58.711Z,21.80
2018-05-29T05:25:24.983Z,21.80
2018-05-29T05:27:51.270Z,21.80
2018-05-29T05:30:17.574Z,22.00
2018-05-29T05:32:43.867Z,22.20
2018-05-29T05:35:10.148Z,22.30
2018-05-29T05:37:36.447Z,22.40
2018-05-29T05:40:02.757Z,22.70
2018-05-29T05:42:29.031Z,23.00
2018-05-29T05:44:55.313Z,23.10
2018-05-29T05:47:21.577Z,23.20
2018-05-29T05:49:47.855Z,23.40
2018-05-29T05:52:14.885Z,23.50
2018-05-29T05:54:41.187Z,23.40
2018-05-29T05:57:07.461Z,23.60
2018-05-29T05:59:34.508Z,24.20
2018-05-29T06:02:00.798Z,24.20
2018-05-29T06:04:27.061Z,24.80
2018-05-29T06:06:54.101Z,25.60
2018-05-29T06:09:21.130Z,25.70
2018-05-29T06:11:47.407Z,25.70
2018-05-29T06:14:13.701Z,26.00
2018-05-29T06:16:39.991Z,26.10
2018-05-29T06:19:06.276Z,27.10
2018-05-29T06:21:33.313Z,28.20
2018-05-29T06:23:59.609Z,28.30
2018-05-29T06:26:25.896Z,28.80
2018-05-29T06:28:52.919Z,29.50
2018-05-29T06:31:19.201Z,29.40
2018-05-29T06:33:45.507Z,29.50
2018-05-29T06:36:12.564Z,28.40
2018-05-29T06:38:38.923Z,28.40
2018-05-29T06:41:05.227Z,28.80
2018-05-29T06:43:31.535Z,28.90
2018-05-29T06:45:57.828Z,29.60
2018-05-29T06:48:24.119Z,29.90
2018-05-29T06:50:50.452Z,29.70
2018-05-29T06:53:16.750Z,30.20
2018-05-29T06:55:44.525Z,30.30
2018-05-29T06:58:10.807Z,30.30
2018-05-29T07:00:37.083Z,30.40
2018-05-29T07:03:04.109Z,30.70
2018-05-29T07:05:30.583Z,30.70
2018-05-29T07:07:56.887Z,30.40
2018-05-29T07:10:24.640Z,30.60
2018-05-29T07:12:50.924Z,30.60
2018-05-29T07:15:17.215Z,30.90
2018-05-29T07:17:43.507Z,30.50
2018-05-29T07:20:09.823Z,30.60
2018-05-29T07:22:36.106Z,30.80
2018-05-29T07:25:02.413Z,30.50
2018-05-29T07:27:28.701Z,29.90
2018-05-29T07:29:54.980Z,30.30
2018-05-29T07:32:21.247Z,30.60
2018-05-29T07:34:48.285Z,30.40
2018-05-29T07:37:14.591Z,30.40
2018-05-29T07:39:40.919Z,30.20
2018-05-29T07:42:07.269Z,30.40
2018-05-29T07:44:34.305Z,30.90
2018-05-29T07:47:00.575Z,30.80
2018-05-29T07:49:26.879Z,31.00
2018-05-29T07:51:53.906Z,31.30
2018-05-29T07:54:20.193Z,31.30
2018-05-29T07:56:46.478Z,31.40
2018-05-29T07:59:12.755Z,32.10
2018-05-29T08:01:39.041Z,32.90
2018-05-29T08:04:05.409Z,33.10
2018-05-29T08:06:33.886Z,32.00
2018-05-29T08:09:00.169Z,31.80
2018-05-29T08:11:27.231Z,32.60
2018-05-29T08:13:53.539Z,32.50
2018-05-29T08:16:20.640Z,32.20
2018-05-29T08:18:47.549Z,32.10
2018-05-29T08:21:13.834Z,32.40
2018-05-29T08:23:40.125Z,32.90
2018-05-29T08:26:06.427Z,33.80
2018-05-29T08:28:33.472Z,34.70
2018-05-29T08:30:59.804Z,34.60
2018-05-29T08:33:26.064Z,34.90
2018-05-29T08:35:52.369Z,34.40
2018-05-29T08:38:22.210Z,34.20
2018-05-29T08:40:48.520Z,33.70
2018-05-29T08:43:14.809Z,33.10
2018-05-29T08:45:41.096Z,33.30
2018-05-29T08:48:07.375Z,33.70
2018-05-29T08:50:33.687Z,34.20
2018-05-29T08:52:59.976Z,33.80
2018-05-29T08:55:26.263Z,33.30
2018-05-29T08:57:52.567Z,32.40
2018-05-29T09:00:18.863Z,32.20
2018-05-29T09:02:45.876Z,31.70
2018-05-29T09:05:12.179Z,31.70
2018-05-29T09:07:38.453Z,31.60
2018-05-29T09:10:05.512Z,33.00
2018-05-29T09:12:31.820Z,33.00
2018-05-29T09:14:58.120Z,33.30
2018-05-29T09:17:24.428Z,33.50
2018-05-29T09:19:50.743Z,33.80
2018-05-29T09:22:17.027Z,34.10
2018-05-29T09:24:43.329Z,34.30
2018-05-29T09:27:10.455Z,33.80
2018-05-29T09:29:36.804Z,34.60
2018-05-29T09:32:10.724Z,35.10
2018-05-29T09:34:43.724Z,35.30
2018-05-29T09:37:17.491Z,36.00
2018-05-29T09:39:53.883Z,36.20
2018-05-29T09:42:24.715Z,35.90
2018-05-29T09:44:51.343Z,36.20
2018-05-29T09:47:23.434Z,36.10
2018-05-29T09:49:54.727Z,35.30
2018-05-29T09:52:21.034Z,35.30
2018-05-29T09:54:48.519Z,35.40
2018-05-29T09:57:19.483Z,35.80
2018-05-29T10:02:18.431Z,35.50
2018-05-29T10:04:45.483Z,33.90
2018-05-29T10:07:11.832Z,33.90
2018-05-29T10:09:38.087Z,33.10
2018-05-29T10:12:04.368Z,32.80
2018-05-29T10:14:30.645Z,33.20
2018-05-29T10:16:56.954Z,34.00
2018-05-29T10:19:23.287Z,33.90
2018-05-29T10:21:49.554Z,33.90
2018-05-29T10:24:15.856Z,33.70
2018-05-29T10:26:42.135Z,33.70
2018-05-29T10:29:08.458Z,32.90
2018-05-29T10:31:34.749Z,32.30
2018-05-29T10:34:01.792Z,32.80
2018-05-29T10:36:28.895Z,33.30
2018-05-29T10:38:55.267Z,33.30
2018-05-29T10:41:22.315Z,33.90
2018-05-29T10:43:49.398Z,33.70
2018-05-29T10:46:15.685Z,33.60
2018-05-29T10:48:43.463Z,32.30
2018-05-29T10:51:09.748Z,32.30
2018-05-29T10:53:36.041Z,32.10
2018-05-29T10:56:02.348Z,32.20
2018-05-29T10:58:28.656Z,32.40
2018-05-29T11:00:54.960Z,32.50
2018-05-29T11:03:21.245Z,32.40
2018-05-29T11:05:47.563Z,32.50
2018-05-29T11:08:13.950Z,32.50
2018-05-29T11:10:40.238Z,32.30
2018-05-29T11:13:07.290Z,32.10
2018-05-29T11:15:34.337Z,32.10
2018-05-29T11:18:01.379Z,31.90
2018-05-29T11:20:28.482Z,31.90
2018-05-29T11:22:54.755Z,31.80
2018-05-29T11:25:21.800Z,31.70
2018-05-29T11:27:48.093Z,31.70
2018-05-29T11:30:14.388Z,32.10
2018-05-29T11:32:40.683Z,32.30
2018-05-29T11:35:06.968Z,32.60
2018-05-29T11:37:33.273Z,32.20
2018-05-29T11:39:59.544Z,32.40
2018-05-29T11:42:25.838Z,32.30
2018-05-29T11:44:52.159Z,32.40
2018-05-29T11:47:19.203Z,32.20
2018-05-29T11:49:46.250Z,32.30
2018-05-29T11:52:13.275Z,32.20
2018-05-29T11:54:39.585Z,32.10
2018-05-29T11:57:06.655Z,32.20
2018-05-29T11:59:32.988Z,32.20
2018-05-29T12:01:59.268Z,32.20
2018-05-29T12:04:25.544Z,32.10
2018-05-29T12:06:52.886Z,31.90
2018-05-29T12:09:19.162Z,32.00
2018-05-29T12:11:45.466Z,32.10
2018-05-29T12:14:12.525Z,31.90
2018-05-29T12:16:38.838Z,31.90
2018-05-29T12:19:05.155Z,31.90
2018-05-29T12:21:31.462Z,31.80
2018-05-29T12:23:57.762Z,31.80
2018-05-29T12:26:24.803Z,31.70
2018-05-29T12:28:51.879Z,31.30
2018-05-29T12:31:18.241Z,31.30
2018-05-29T12:33:44.537Z,31.10
2018-05-29T12:36:10.841Z,31.00
2018-05-29T12:38:37.875Z,31.10
2018-05-29T12:41:04.182Z,31.10
2018-05-29T12:43:30.592Z,31.00
2018-05-29T12:45:56.916Z,30.90
2018-05-29T12:48:23.216Z,31.00
2018-05-29T12:50:50.256Z,30.80
2018-05-29T12:53:19.202Z,31.10
2018-05-29T12:55:45.794Z,31.10
2018-05-29T12:58:13.603Z,31.20
2018-05-29T13:00:40.935Z,31.00
2018-05-29T13:03:09.132Z,31.00
2018-05-29T13:08:13.922Z,31.20
2018-05-29T13:10:41.365Z,31.40
2018-05-29T13:13:07.878Z,31.30
2018-05-29T13:15:34.176Z,31.20
2018-05-29T13:18:01.308Z,31.00
2018-05-29T13:20:28.343Z,31.00
2018-05-29T13:22:55.373Z,30.90
2018-05-29T13:25:21.679Z,30.90
2018-05-29T13:27:48.024Z,30.90
2018-05-29T13:30:14.311Z,30.90
2018-05-29T13:32:41.348Z,30.90
2018-05-29T13:35:08.396Z,30.80
2018-05-29T13:37:35.558Z,30.90
2018-05-29T13:40:02.863Z,30.60
2018-05-29T13:42:29.154Z,30.60
2018-05-29T13:44:55.799Z,30.20
2018-05-29T13:47:22.260Z,30.20
2018-05-29T13:49:48.584Z,30.10
2018-05-29T13:52:14.890Z,30.00
2018-05-29T13:54:41.164Z,29.80
2018-05-29T13:57:07.464Z,29.60
2018-05-29T13:59:33.758Z,29.50
2018-05-29T14:02:00.065Z,29.40
2018-05-29T14:04:26.344Z,29.50
2018-05-29T14:06:52.640Z,29.40
2018-05-29T14:09:19.633Z,29.20
2018-05-29T14:11:46.706Z,29.10
2018-05-29T14:14:13.057Z,29.00
2018-05-29T14:16:40.183Z,29.10
2018-05-29T14:19:11.912Z,29.10
2018-05-29T14:21:38.253Z,29.10
2018-05-29T14:24:04.564Z,29.00
2018-05-29T14:26:30.900Z,29.00
2018-05-29T14:28:57.230Z,29.20
2018-05-29T14:31:23.511Z,29.20
2018-05-29T14:33:49.809Z,29.20
2018-05-29T14:36:17.543Z,29.40
2018-05-29T14:38:44.244Z,29.60
2018-05-29T14:41:12.278Z,29.70
2018-05-29T14:43:38.743Z,29.70
2018-05-29T14:46:05.827Z,29.80
2018-05-29T14:48:32.933Z,29.70
2018-05-29T14:50:59.221Z,29.60
2018-05-29T14:53:32.604Z,29.70
2018-05-29T14:55:58.931Z,29.80
2018-05-29T14:58:25.991Z,29.10
2018-05-29T15:00:53.127Z,29.10
2018-05-29T15:03:19.717Z,28.90
2018-05-29T15:05:46.054Z,28.70
2018-05-29T15:08:12.605Z,28.50
2018-05-29T15:10:38.920Z,28.30
2018-05-29T15:13:06.080Z,28.30
2018-05-29T15:15:33.417Z,28.40
2018-05-29T15:27:45.421Z,28.50
2018-05-29T15:30:12.746Z,26.80
2018-05-29T15:32:41.637Z,26.80
2018-05-29T15:35:16.338Z,26.70
2018-05-29T15:37:50.131Z,26.60
2018-05-29T15:40:17.934Z,26.40
2018-05-29T15:42:44.551Z,26.40
2018-05-29T15:45:11.334Z,26.20
2018-05-29T15:47:39.594Z,26.30
2018-05-29T15:50:07.793Z,26.20
2018-05-29T15:52:35.093Z,26.10
2018-05-29T15:55:02.239Z,26.10
2018-05-29T15:57:33.915Z,26.00
2018-05-29T16:00:00.495Z,25.70
2018-05-29T16:02:26.953Z,25.60
2018-05-29T16:04:53.367Z,25.50
2018-05-29T16:07:20.461Z,25.30
2018-05-29T16:09:46.765Z,25.30
2018-05-29T16:12:13.794Z,25.50
2018-05-29T16:14:40.860Z,25.60
2018-05-29T16:17:07.265Z,25.50
2018-05-29T16:19:33.589Z,25.70
2018-05-29T16:21:59.913Z,25.80
2018-05-29T16:24:26.211Z,25.70
2018-05-29T16:26:52.566Z,25.60
2018-05-29T16:29:18.875Z,26.00
2018-05-29T16:31:45.194Z,26.10
2018-05-29T16:34:11.514Z,26.20
2018-05-29T16:36:38.005Z,26.00
2018-05-29T16:39:04.372Z,25.80
2018-05-29T16:41:30.655Z,25.80
2018-05-29T16:43:56.943Z,25.80
2018-05-29T16:46:23.609Z,25.90
2018-05-29T16:48:49.881Z,25.90
2018-05-29T16:51:16.203Z,25.90
2018-05-29T16:53:42.517Z,26.00
2018-05-29T16:56:09.570Z,25.70
2018-05-29T16:58:36.588Z,25.70
2018-05-29T17:01:03.007Z,25.70
2018-05-29T17:03:29.317Z,25.80
2018-05-29T17:05:55.617Z,25.60
2018-05-29T17:08:22.672Z,25.70
2018-05-29T17:10:48.978Z,25.60
2018-05-29T17:13:15.261Z,25.70
2018-05-29T17:15:41.555Z,25.70
2018-05-29T17:18:07.920Z,25.70
2018-05-29T17:20:34.252Z,25.60
2018-05-29T17:23:00.580Z,25.50
2018-05-29T17:25:26.878Z,25.50
2018-05-29T17:27:54.279Z,25.50
2018-05-29T17:30:20.581Z,25.40
2018-05-29T17:32:46.895Z,25.20
2018-05-29T17:35:13.954Z,25.20
2018-05-29T17:37:40.238Z,25.20
2018-05-29T17:40:06.551Z,25.00
2018-05-29T17:42:32.848Z,24.90
2018-05-29T17:44:59.939Z,24.80
2018-05-29T17:47:26.232Z,24.70
2018-05-29T17:49:52.613Z,24.80
2018-05-29T17:52:19.092Z,24.90
2018-05-29T17:54:45.489Z,24.70
2018-05-29T17:57:11.843Z,24.80
2018-05-29T17:59:38.973Z,24.80
2018-05-29T18:02:06.188Z,24.80
2018-05-29T18:04:32.525Z,24.80
2018-05-29T18:07:01.954Z,24.90
2018-05-29T18:09:28.278Z,24.90
2018-05-29T18:11:54.694Z,24.90
2018-05-29T18:14:21.088Z,24.80
2018-05-29T18:16:48.835Z,24.80
2018-05-29T18:19:15.236Z,24.80
2018-05-29T18:21:41.662Z,24.80
2018-05-29T18:24:08.004Z,24.70
2018-05-29T18:26:35.058Z,24.60
2018-05-29T18:29:01.484Z,24.70
2018-05-29T18:31:28.538Z,24.60
2018-05-29T18:33:54.965Z,24.60
2018-05-29T18:36:24.858Z,24.50
2018-05-29T18:38:51.265Z,24.50
2018-05-29T18:51:03.416Z,23.80
2018-05-29T18:53:30.555Z,23.80
2018-05-29T18:55:57.935Z,23.70
2018-05-29T18:58:25.123Z,23.70
2018-05-29T19:00:52.368Z,23.60
2018-05-29T19:03:18.773Z,23.60
2018-05-29T19:05:45.151Z,23.70
2018-05-29T19:17:56.511Z,23.60
2018-05-29T19:20:22.933Z,23.30
2018-05-29T19:22:50.539Z,23.20
2018-05-29T19:25:16.911Z,23.10
2018-05-29T19:27:44.471Z,23.10
2018-05-29T19:30:10.813Z,23.10
2018-05-29T19:32:37.233Z,23.10
2018-05-29T19:35:03.673Z,23.00
2018-05-29T19:37:30.821Z,22.90
2018-05-29T19:39:57.261Z,22.90
2018-05-29T19:42:23.797Z,22.80
2018-05-29T19:44:50.176Z,22.80
2018-05-29T19:47:17.063Z,22.80
2018-05-29T19:49:44.053Z,22.80
2018-05-29T19:52:10.588Z,22.80
2018-05-29T19:54:37.003Z,22.80
2018-05-29T19:57:04.330Z,22.70
2018-05-29T19:59:30.690Z,22.60
2018-05-29T20:01:57.037Z,22.40
2018-05-29T20:04:23.403Z,22.40
2018-05-29T20:06:50.680Z,22.20
2018-05-29T20:09:17.842Z,22.20
2018-05-29T20:11:44.271Z,22.10
2018-05-29T20:14:10.632Z,22.10
2018-05-29T20:16:37.090Z,22.00
2018-05-29T20:19:04.251Z,21.80
2018-05-29T20:21:32.305Z,21.80
2018-05-29T20:23:59.429Z,21.80
2018-05-29T20:26:32.356Z,21.80
2018-05-29T20:28:59.429Z,21.70
2018-05-29T20:31:25.862Z,21.70
2018-05-29T20:33:53.691Z,21.80
2018-05-29T20:36:20.817Z,21.80
2018-05-29T20:38:47.249Z,21.80
2018-05-29T20:41:13.633Z,21.80
2018-05-29T20:43:41.072Z,21.70
2018-05-29T20:46:07.661Z,21.70
2018-05-29T20:48:33.976Z,21.70
2018-05-29T20:51:00.311Z,21.80
2018-05-29T20:53:26.720Z,21.80
2018-05-29T20:55:53.079Z,21.70
2018-05-29T20:58:19.428Z,21.80
2018-05-29T21:00:46.649Z,21.90
2018-05-29T21:03:13.927Z,21.80
2018-05-29T21:05:40.281Z,21.80
2018-05-29T21:08:06.643Z,21.80
2018-05-29T21:10:33.015Z,21.80
2018-05-29T21:12:59.371Z,21.70
2018-05-29T21:15:26.753Z,21.60
2018-05-29T21:17:53.112Z,21.60
2018-05-29T21:20:19.453Z,21.50
2018-05-29T21:22:45.793Z,21.50
2018-05-29T21:25:12.151Z,21.40
2018-05-29T21:27:39.235Z,21.40
2018-05-29T21:30:05.615Z,21.40
2018-05-29T21:32:31.961Z,21.40
2018-05-29T21:35:00.095Z,21.30
2018-05-29T21:37:26.493Z,21.30
2018-05-29T21:39:52.803Z,21.20
2018-05-29T21:42:19.140Z,21.20
2018-05-29T21:44:46.236Z,21.10
2018-05-29T21:47:12.570Z,21.10
2018-05-29T21:49:38.942Z,21.00
2018-05-29T21:52:06.011Z,21.00
2018-05-29T21:54:32.316Z,21.00
2018-05-29T21:56:59.411Z,20.90
2018-05-29T21:59:26.512Z,20.90
2018-05-29T22:01:52.886Z,20.80
2018-05-29T22:04:19.240Z,20.80
2018-05-29T22:06:45.569Z,20.80
2018-05-29T22:09:11.912Z,20.80
2018-05-29T22:11:38.300Z,20.80
2018-05-29T22:14:04.687Z,20.80
2018-05-29T22:16:31.017Z,20.80
2018-05-29T22:18:57.385Z,20.80
2018-05-29T22:21:23.754Z,20.70
2018-05-29T22:23:50.152Z,20.60
2018-05-29T22:26:17.233Z,20.50
2018-05-29T22:28:43.551Z,20.50
2018-05-29T22:31:09.943Z,20.40
2018-05-29T22:33:36.276Z,20.30
2018-05-29T22:36:02.668Z,20.30
2018-05-29T22:38:28.988Z,20.30
2018-05-29T22:40:55.364Z,20.10
2018-05-29T22:43:22.449Z,20.10
2018-05-29T22:45:48.767Z,20.10
2018-05-29T22:48:15.840Z,19.90
2018-05-29T22:50:42.235Z,19.90
2018-05-29T22:53:09.044Z,19.80
2018-05-29T22:55:35.422Z,19.80
2018-05-29T22:58:02.504Z,19.70
2018-05-29T23:00:28.935Z,19.70
2018-05-29T23:02:55.350Z,19.70
2018-05-29T23:05:21.696Z,19.80
2018-05-29T23:07:48.027Z,19.70
2018-05-29T23:10:14.383Z,19.60
2018-05-29T23:12:40.781Z,19.60
2018-05-29T23:15:07.119Z,19.60
2018-05-29T23:17:33.472Z,19.60
2018-05-29T23:19:59.823Z,19.60
2018-05-29T23:22:26.227Z,19.50
2018-05-29T23:24:52.538Z,19.50
2018-05-29T23:27:19.900Z,19.50
2018-05-29T23:29:46.257Z,19.50
2018-05-29T23:32:12.611Z,19.50
2018-05-29T23:34:39.996Z,19.50
2018-05-29T23:37:07.317Z,19.40
2018-05-29T23:39:33.643Z,19.40
2018-05-29T23:42:00.004Z,19.40
2018-05-29T23:44:26.305Z,19.40
2018-05-29T23:46:53.268Z,19.40
2018-05-29T23:49:21.090Z,19.50
2018-05-29T23:51:47.433Z,19.50
2018-05-29T23:54:14.381Z,19.50
2018-05-29T23:56:40.745Z,19.50
2018-05-29T23:59:07.050Z,19.40
